sensor_id;sensor_type;location;lat;lon;timestamp;temperature;humidity
75901;DHT22;64577;50.594;5.570;2022-11-20T05:22:41;18.01;45.41
75901;DHT22;64577;50.594;5.570;2022-11-20T05:25:07;17.98;45.46
75901;DHT22;64577;50.594;5.570;2022-11-20T05:27:32;17.91;45.43
75901;DHT22;64577;50.594;5.570;2022-11-20T05:29:58;17.90;45.40
75901;DHT22;64577;50.594;5.570;2022-11-20T05:32:23;17.87;45.39
75901;DHT22;64577;50.594;5.570;2022-11-20T05:34:51;17.85;45.31
75901;DHT22;64577;50.594;5.570;2022-11-20T05:37:16;17.82;45.37
75901;DHT22;64577;50.594;5.570;2022-11-20T05:39:41;17.79;45.26
75901;DHT22;64577;50.594;5.570;2022-11-20T05:42:07;17.78;45.26
75901;DHT22;64577;50.594;5.570;2022-11-20T05:44:50;17.72;45.23
75901;DHT22;64577;50.594;5.570;2022-11-20T05:47:15;17.69;45.21
75901;DHT22;64577;50.594;5.570;2022-11-20T05:49:41;17.66;45.26
75901;DHT22;64577;50.594;5.570;2022-11-20T05:52:06;17.61;45.22
75901;DHT22;64577;50.594;5.570;2022-11-20T05:54:32;17.61;45.28
75901;DHT22;64577;50.594;5.570;2022-11-20T05:56:57;17.58;45.24
75901;DHT22;64577;50.594;5.570;2022-11-20T05:59:22;17.58;45.26
75901;DHT22;64577;50.594;5.570;2022-11-20T06:01:48;17.52;45.21
75901;DHT22;64577;50.594;5.570;2022-11-20T06:04:13;17.53;45.39
75901;DHT22;64577;50.594;5.570;2022-11-20T06:06:38;17.52;45.44
75901;DHT22;64577;50.594;5.570;2022-11-20T06:09:04;17.56;45.52
75901;DHT22;64577;50.594;5.570;2022-11-20T06:11:29;17.65;45.47
75901;DHT22;64577;50.594;5.570;2022-11-20T06:13:54;17.75;45.26
75901;DHT22;64577;50.594;5.570;2022-11-20T06:16:20;17.89;45.00
75901;DHT22;64577;50.594;5.570;2022-11-20T06:18:47;18.01;44.78
75901;DHT22;64577;50.594;5.570;2022-11-20T06:21:18;18.15;44.55
75901;DHT22;64577;50.594;5.570;2022-11-20T06:23:44;18.27;44.34
75901;DHT22;64577;50.594;5.570;2022-11-20T06:26:15;18.41;44.09
75901;DHT22;64577;50.594;5.570;2022-11-20T06:28:41;18.49;43.95
75901;DHT22;64577;50.594;5.570;2022-11-20T06:31:07;18.58;43.82
75901;DHT22;64577;50.594;5.570;2022-11-20T06:33:32;18.66;43.70
75901;DHT22;64577;50.594;5.570;2022-11-20T06:35:59;18.69;43.72
75901;DHT22;64577;50.594;5.570;2022-11-20T06:38:25;18.73;43.66
75901;DHT22;64577;50.594;5.570;2022-11-20T06:40:50;18.79;43.63
75901;DHT22;64577;50.594;5.570;2022-11-20T06:43:16;18.83;43.61
75901;DHT22;64577;50.594;5.570;2022-11-20T06:45:41;18.89;43.60
75901;DHT22;64577;50.594;5.570;2022-11-20T06:48:06;18.91;43.52
75901;DHT22;64577;50.594;5.570;2022-11-20T06:50:32;18.97;43.56
75901;DHT22;64577;50.594;5.570;2022-11-20T06:53:00;19.01;43.42
75901;DHT22;64577;50.594;5.570;2022-11-20T06:55:26;19.07;43.38
75901;DHT22;64577;50.594;5.570;2022-11-20T06:57:51;19.07;43.36
75901;DHT22;64577;50.594;5.570;2022-11-20T07:00:17;19.11;43.43
75901;DHT22;64577;50.594;5.570;2022-11-20T07:02:42;19.11;43.44
75901;DHT22;64577;50.594;5.570;2022-11-20T07:05:07;19.11;43.42
75901;DHT22;64577;50.594;5.570;2022-11-20T07:07:33;19.12;43.46
75901;DHT22;64577;50.594;5.570;2022-11-20T07:09:58;19.14;43.43
75901;DHT22;64577;50.594;5.570;2022-11-20T07:12:24;19.12;43.34
75901;DHT22;64577;50.594;5.570;2022-11-20T07:14:49;19.17;43.32
75901;DHT22;64577;50.594;5.570;2022-11-20T07:17:14;19.19;43.27
75901;DHT22;64577;50.594;5.570;2022-11-20T07:19:40;19.24;43.24
75901;DHT22;64577;50.594;5.570;2022-11-20T07:22:05;19.24;43.25
75901;DHT22;64577;50.594;5.570;2022-11-20T07:24:31;19.27;43.20
75901;DHT22;64577;50.594;5.570;2022-11-20T07:26:56;19.27;43.23
75901;DHT22;64577;50.594;5.570;2022-11-20T07:29:21;19.29;43.17
75901;DHT22;64577;50.594;5.570;2022-11-20T07:31:46;19.28;43.20
75901;DHT22;64577;50.594;5.570;2022-11-20T07:34:12;19.31;43.14
75901;DHT22;64577;50.594;5.570;2022-11-20T07:36:37;19.28;43.24
75901;DHT22;64577;50.594;5.570;2022-11-20T07:39:03;19.28;43.17
75901;DHT22;64577;50.594;5.570;2022-11-20T07:41:28;19.29;43.21
75901;DHT22;64577;50.594;5.570;2022-11-20T07:43:54;19.32;43.17
75901;DHT22;64577;50.594;5.570;2022-11-20T07:46:19;19.31;43.22
75901;DHT22;64577;50.594;5.570;2022-11-20T07:48:44;19.32;43.25
75901;DHT22;64577;50.594;5.570;2022-11-20T07:51:10;19.34;43.29
75901;DHT22;64577;50.594;5.570;2022-11-20T07:53:35;19.32;43.24
75901;DHT22;64577;50.594;5.570;2022-11-20T07:56:01;19.34;43.31
75901;DHT22;64577;50.594;5.570;2022-11-20T07:58:29;19.34;43.30
75901;DHT22;64577;50.594;5.570;2022-11-20T08:00:54;19.34;43.36
75901;DHT22;64577;50.594;5.570;2022-11-20T08:03:20;19.35;43.24
75901;DHT22;64577;50.594;5.570;2022-11-20T08:05:45;19.35;43.19
75901;DHT22;64577;50.594;5.570;2022-11-20T08:08:10;19.34;43.27
75901;DHT22;64577;50.594;5.570;2022-11-20T08:10:36;19.32;43.30
75901;DHT22;64577;50.594;5.570;2022-11-20T08:13:01;19.34;43.29
75901;DHT22;64577;50.594;5.570;2022-11-20T08:15:49;19.32;43.35
75901;DHT22;64577;50.594;5.570;2022-11-20T08:18:16;19.32;43.43
75901;DHT22;64577;50.594;5.570;2022-11-20T08:20:42;19.32;43.49
75901;DHT22;64577;50.594;5.570;2022-11-20T08:23:08;19.31;43.48
75901;DHT22;64577;50.594;5.570;2022-11-20T08:25:35;19.31;43.63
75901;DHT22;64577;50.594;5.570;2022-11-20T08:28:02;19.29;43.54
75901;DHT22;64577;50.594;5.570;2022-11-20T08:30:28;19.27;43.80
75901;DHT22;64577;50.594;5.570;2022-11-20T08:32:54;19.25;43.70
75901;DHT22;64577;50.594;5.570;2022-11-20T08:35:20;19.22;43.80
75901;DHT22;64577;50.594;5.570;2022-11-20T08:37:46;19.19;43.66
75901;DHT22;64577;50.594;5.570;2022-11-20T08:40:12;19.18;43.52
75901;DHT22;64577;50.594;5.570;2022-11-20T08:42:45;19.17;43.59
75901;DHT22;64577;50.594;5.570;2022-11-20T08:45:11;19.12;44.09
75901;DHT22;64577;50.594;5.570;2022-11-20T08:47:36;19.08;44.08
75901;DHT22;64577;50.594;5.570;2022-11-20T08:50:01;19.07;44.40
75901;DHT22;64577;50.594;5.570;2022-11-20T08:52:27;19.04;44.21
75901;DHT22;64577;50.594;5.570;2022-11-20T08:54:53;19.01;44.71
75901;DHT22;64577;50.594;5.570;2022-11-20T08:57:18;19.03;44.52
75901;DHT22;64577;50.594;5.570;2022-11-20T08:59:43;19.01;44.59
75901;DHT22;64577;50.594;5.570;2022-11-20T09:02:09;19.06;44.81
75901;DHT22;64577;50.594;5.570;2022-11-20T09:04:34;19.08;44.86
75901;DHT22;64577;50.594;5.570;2022-11-20T09:07:00;19.08;44.94
75901;DHT22;64577;50.594;5.570;2022-11-20T09:09:25;19.14;44.92
75901;DHT22;64577;50.594;5.570;2022-11-20T09:11:51;19.22;45.17
75901;DHT22;64577;50.594;5.570;2022-11-20T09:14:16;19.27;45.37
75901;DHT22;64577;50.594;5.570;2022-11-20T09:16:41;19.35;45.40
75901;DHT22;64577;50.594;5.570;2022-11-20T09:19:07;19.42;45.36
75901;DHT22;64577;50.594;5.570;2022-11-20T09:21:32;19.48;45.20
75901;DHT22;64577;50.594;5.570;2022-11-20T09:23:57;19.52;45.13
75901;DHT22;64577;50.594;5.570;2022-11-20T09:26:22;19.53;45.05
75901;DHT22;64577;50.594;5.570;2022-11-20T09:28:48;19.56;44.99
75901;DHT22;64577;50.594;5.570;2022-11-20T09:31:22;19.58;44.95
75901;DHT22;64577;50.594;5.570;2022-11-20T09:33:48;19.62;44.94
75901;DHT22;64577;50.594;5.570;2022-11-20T09:36:14;19.60;44.67
75901;DHT22;64577;50.594;5.570;2022-11-20T09:38:39;19.58;44.59
75901;DHT22;64577;50.594;5.570;2022-11-20T09:41:06;19.56;44.62
75901;DHT22;64577;50.594;5.570;2022-11-20T09:46:29;19.53;44.59
75901;DHT22;64577;50.594;5.570;2022-11-20T09:49:36;19.48;45.36
75901;DHT22;64577;50.594;5.570;2022-11-20T09:54:54;19.42;45.43
75901;DHT22;64577;50.594;5.570;2022-11-20T09:57:34;19.42;45.54
75901;DHT22;64577;50.594;5.570;2022-11-20T10:00:02;19.35;45.58
75901;DHT22;64577;50.594;5.570;2022-11-20T10:05:23;19.31;45.34
75901;DHT22;64577;50.594;5.570;2022-11-20T10:10:54;19.25;45.36
75901;DHT22;64577;50.594;5.570;2022-11-20T10:19:27;19.15;45.29
75901;DHT22;64577;50.594;5.570;2022-11-20T10:30:15;19.03;45.93
75901;DHT22;64577;50.594;5.570;2022-11-20T10:32:54;19.03;46.41
75901;DHT22;64577;50.594;5.570;2022-11-20T10:35:26;19.07;46.30
75901;DHT22;64577;50.594;5.570;2022-11-20T10:37:57;19.07;46.36
75901;DHT22;64577;50.594;5.570;2022-11-20T10:40:34;19.10;46.30
75901;DHT22;64577;50.594;5.570;2022-11-20T10:43:32;19.15;46.17
75901;DHT22;64577;50.594;5.570;2022-11-20T10:46:05;19.19;46.02
75901;DHT22;64577;50.594;5.570;2022-11-20T10:48:33;19.22;45.96
75901;DHT22;64577;50.594;5.570;2022-11-20T10:53:33;19.32;45.85
75901;DHT22;64577;50.594;5.570;2022-11-20T10:56:31;19.34;45.86
75901;DHT22;64577;50.594;5.570;2022-11-20T11:01:42;19.38;45.96
75901;DHT22;64577;50.594;5.570;2022-11-20T11:06:55;19.44;46.14
75901;DHT22;64577;50.594;5.570;2022-11-20T11:09:32;19.46;46.12
75901;DHT22;64577;50.594;5.570;2022-11-20T11:11:58;19.52;46.07
75901;DHT22;64577;50.594;5.570;2022-11-20T11:14:24;19.52;46.61
75901;DHT22;64577;50.594;5.570;2022-11-20T11:16:56;19.59;48.25
75901;DHT22;64577;50.594;5.570;2022-11-20T11:19:21;19.60;47.70
75901;DHT22;64577;50.594;5.570;2022-11-20T11:21:50;19.63;47.56
75901;DHT22;64577;50.594;5.570;2022-11-20T11:24:34;19.65;47.53
75901;DHT22;64577;50.594;5.570;2022-11-20T11:27:02;19.62;47.43
75901;DHT22;64577;50.594;5.570;2022-11-20T11:29:32;19.60;47.11
75901;DHT22;64577;50.594;5.570;2022-11-20T11:32:06;19.58;46.90
75901;DHT22;64577;50.594;5.570;2022-11-20T11:34:33;19.59;46.94
75901;DHT22;64577;50.594;5.570;2022-11-20T11:37:00;19.56;47.11
75901;DHT22;64577;50.594;5.570;2022-11-20T11:39:30;19.55;47.24
75901;DHT22;64577;50.594;5.570;2022-11-20T11:41:57;19.52;47.08
75901;DHT22;64577;50.594;5.570;2022-11-20T11:46:53;19.49;47.35
75901;DHT22;64577;50.594;5.570;2022-11-20T11:49:20;19.49;47.41
75901;DHT22;64577;50.594;5.570;2022-11-20T11:52:12;19.46;47.43
75901;DHT22;64577;50.594;5.570;2022-11-20T11:54:50;19.48;47.54
75901;DHT22;64577;50.594;5.570;2022-11-20T11:57:43;19.44;47.43
75901;DHT22;64577;50.594;5.570;2022-11-20T12:00:12;19.44;47.32
75901;DHT22;64577;50.594;5.570;2022-11-20T12:05:20;19.42;47.35
75901;DHT22;64577;50.594;5.570;2022-11-20T12:10:50;19.39;47.34
75901;DHT22;64577;50.594;5.570;2022-11-20T12:15:59;19.36;47.30
75901;DHT22;64577;50.594;5.570;2022-11-20T12:18:24;19.35;47.30
75901;DHT22;64577;50.594;5.570;2022-11-20T12:23:36;19.35;47.29
75901;DHT22;64577;50.594;5.570;2022-11-20T12:26:16;19.31;47.37
75901;DHT22;64577;50.594;5.570;2022-11-20T12:29:08;19.29;47.45
75901;DHT22;64577;50.594;5.570;2022-11-20T12:38:07;19.15;47.33
75901;DHT22;64577;50.594;5.570;2022-11-20T12:43:28;19.10;47.61
75901;DHT22;64577;50.594;5.570;2022-11-20T12:51:32;19.07;47.61
75901;DHT22;64577;50.594;5.570;2022-11-20T13:05:05;19.38;49.04
75901;DHT22;64577;50.594;5.570;2022-11-20T13:07:35;19.44;48.80
75901;DHT22;64577;50.594;5.570;2022-11-20T13:10:01;19.52;48.80
75901;DHT22;64577;50.594;5.570;2022-11-20T13:12:37;19.62;48.84
75901;DHT22;64577;50.594;5.570;2022-11-20T13:15:18;19.67;48.69
75901;DHT22;64577;50.594;5.570;2022-11-20T13:17:51;19.67;48.04
75901;DHT22;64577;50.594;5.570;2022-11-20T13:20:19;19.65;48.11
75901;DHT22;64577;50.594;5.570;2022-11-20T13:22:50;19.66;48.05
75901;DHT22;64577;50.594;5.570;2022-11-20T13:25:27;19.65;48.07
75901;DHT22;64577;50.594;5.570;2022-11-20T13:27:53;19.60;48.22
75901;DHT22;64577;50.594;5.570;2022-11-20T13:30:21;19.59;48.15
75901;DHT22;64577;50.594;5.570;2022-11-20T13:35:34;19.55;48.14
75901;DHT22;64577;50.594;5.570;2022-11-20T13:38:11;19.56;48.05
75901;DHT22;64577;50.594;5.570;2022-11-20T13:41:00;19.52;48.05
75901;DHT22;64577;50.594;5.570;2022-11-20T13:43:47;19.49;48.10
75901;DHT22;64577;50.594;5.570;2022-11-20T13:46:13;19.49;47.98
75901;DHT22;64577;50.594;5.570;2022-11-20T13:48:41;19.48;47.89
75901;DHT22;64577;50.594;5.570;2022-11-20T13:51:28;19.42;47.94
75901;DHT22;64577;50.594;5.570;2022-11-20T13:54:06;19.39;48.06
75901;DHT22;64577;50.594;5.570;2022-11-20T13:59:29;19.34;47.89
75901;DHT22;64577;50.594;5.570;2022-11-20T14:01:59;19.29;47.83
75901;DHT22;64577;50.594;5.570;2022-11-20T14:04:29;19.28;47.82
75901;DHT22;64577;50.594;5.570;2022-11-20T14:06:55;19.22;48.14
75901;DHT22;64577;50.594;5.570;2022-11-20T14:09:30;19.19;48.12
75901;DHT22;64577;50.594;5.570;2022-11-20T14:11:56;19.17;48.29
75901;DHT22;64577;50.594;5.570;2022-11-20T14:14:30;19.12;48.75
75901;DHT22;64577;50.594;5.570;2022-11-20T14:19:51;19.12;48.50
75901;DHT22;64577;50.594;5.570;2022-11-20T14:22:27;19.08;48.11
75901;DHT22;64577;50.594;5.570;2022-11-20T14:25:06;19.04;48.37
75901;DHT22;64577;50.594;5.570;2022-11-20T14:27:37;19.01;48.28
75901;DHT22;64577;50.594;5.570;2022-11-20T14:30:04;18.97;47.84
75901;DHT22;64577;50.594;5.570;2022-11-20T14:32:31;18.97;47.71
75901;DHT22;64577;50.594;5.570;2022-11-20T14:35:02;18.96;48.29
75901;DHT22;64577;50.594;5.570;2022-11-20T14:37:35;18.90;48.36
75901;DHT22;64577;50.594;5.570;2022-11-20T14:40:04;18.90;48.23
75901;DHT22;64577;50.594;5.570;2022-11-20T14:42:30;18.91;48.95
75901;DHT22;64577;50.594;5.570;2022-11-20T14:44:58;18.94;48.77
75901;DHT22;64577;50.594;5.570;2022-11-20T14:47:26;19.00;49.03
75901;DHT22;64577;50.594;5.570;2022-11-20T14:49:53;19.06;49.03
75901;DHT22;64577;50.594;5.570;2022-11-20T14:52:22;19.14;49.63
75901;DHT22;64577;50.594;5.570;2022-11-20T14:54:55;19.22;49.71
75901;DHT22;64577;50.594;5.570;2022-11-20T14:57:31;19.31;49.75
75901;DHT22;64577;50.594;5.570;2022-11-20T15:00:05;19.38;49.87
75901;DHT22;64577;50.594;5.570;2022-11-20T15:02:32;19.46;49.63
75901;DHT22;64577;50.594;5.570;2022-11-20T15:04:58;19.49;49.33
75901;DHT22;64577;50.594;5.570;2022-11-20T15:07:26;19.52;49.33
75901;DHT22;64577;50.594;5.570;2022-11-20T15:10:23;19.56;49.60
75901;DHT22;64577;50.594;5.570;2022-11-20T15:15:21;19.59;49.81
75901;DHT22;64577;50.594;5.570;2022-11-20T15:17:48;19.63;49.65
75901;DHT22;64577;50.594;5.570;2022-11-20T15:20:15;19.65;49.88
75901;DHT22;64577;50.594;5.570;2022-11-20T15:22:41;19.67;49.98
75901;DHT22;64577;50.594;5.570;2022-11-20T15:25:14;19.69;50.31
75901;DHT22;64577;50.594;5.570;2022-11-20T15:27:42;19.76;50.41
75901;DHT22;64577;50.594;5.570;2022-11-20T15:30:15;19.81;49.81
75901;DHT22;64577;50.594;5.570;2022-11-20T15:32:42;19.81;49.12
75901;DHT22;64577;50.594;5.570;2022-11-20T15:35:08;19.86;49.17
75901;DHT22;64577;50.594;5.570;2022-11-20T15:37:33;19.91;49.24
75901;DHT22;64577;50.594;5.570;2022-11-20T15:39:59;19.96;49.09
75901;DHT22;64577;50.594;5.570;2022-11-20T15:42:24;20.00;49.16
75901;DHT22;64577;50.594;5.570;2022-11-20T15:44:49;20.03;49.07
75901;DHT22;64577;50.594;5.570;2022-11-20T15:47:15;20.05;49.02
75901;DHT22;64577;50.594;5.570;2022-11-20T15:49:42;20.08;49.06
75901;DHT22;64577;50.594;5.570;2022-11-20T15:52:09;20.10;49.01
75901;DHT22;64577;50.594;5.570;2022-11-20T15:54:35;20.14;48.86
75901;DHT22;64577;50.594;5.570;2022-11-20T15:57:00;20.15;48.84
75901;DHT22;64577;50.594;5.570;2022-11-20T15:59:27;20.17;48.77
75901;DHT22;64577;50.594;5.570;2022-11-20T16:01:52;20.15;47.99
75901;DHT22;64577;50.594;5.570;2022-11-20T16:04:17;20.10;47.74
75901;DHT22;64577;50.594;5.570;2022-11-20T16:06:43;20.07;47.74
75901;DHT22;64577;50.594;5.570;2022-11-20T16:09:09;20.04;47.66
75901;DHT22;64577;50.594;5.570;2022-11-20T16:11:34;20.00;47.78
75901;DHT22;64577;50.594;5.570;2022-11-20T16:14:02;19.96;47.88
75901;DHT22;64577;50.594;5.570;2022-11-20T16:16:46;19.94;47.92
75901;DHT22;64577;50.594;5.570;2022-11-20T16:19:12;19.87;47.91
75901;DHT22;64577;50.594;5.570;2022-11-20T16:21:37;19.87;47.89
75901;DHT22;64577;50.594;5.570;2022-11-20T16:24:06;19.83;47.80
75901;DHT22;64577;50.594;5.570;2022-11-20T16:26:32;19.83;47.77
75901;DHT22;64577;50.594;5.570;2022-11-20T16:29:01;19.80;47.83
75901;DHT22;64577;50.594;5.570;2022-11-20T16:31:28;19.80;47.87
75901;DHT22;64577;50.594;5.570;2022-11-20T16:33:55;19.76;47.74
75901;DHT22;64577;50.594;5.570;2022-11-20T16:36:22;19.71;47.75
75901;DHT22;64577;50.594;5.570;2022-11-20T16:38:56;19.65;47.87
75901;DHT22;64577;50.594;5.570;2022-11-20T16:41:23;19.66;47.80
75901;DHT22;64577;50.594;5.570;2022-11-20T16:43:53;19.62;47.88
75901;DHT22;64577;50.594;5.570;2022-11-20T16:46:21;19.59;47.60
75901;DHT22;64577;50.594;5.570;2022-11-20T16:48:57;19.49;47.63
75901;DHT22;64577;50.594;5.570;2022-11-20T16:51:23;19.44;47.68
75901;DHT22;64577;50.594;5.570;2022-11-20T16:53:50;19.39;48.01
75901;DHT22;64577;50.594;5.570;2022-11-20T16:56:21;19.38;48.01
75901;DHT22;64577;50.594;5.570;2022-11-20T16:58:48;19.35;48.13
75901;DHT22;64577;50.594;5.570;2022-11-20T17:01:15;19.38;48.36
75901;DHT22;64577;50.594;5.570;2022-11-20T17:03:43;19.42;48.11
75901;DHT22;64577;50.594;5.570;2022-11-20T17:06:12;19.46;47.89
75901;DHT22;64577;50.594;5.570;2022-11-20T17:08:37;19.52;47.64
75901;DHT22;64577;50.594;5.570;2022-11-20T17:11:07;19.56;47.58
75901;DHT22;64577;50.594;5.570;2022-11-20T17:13:33;19.63;47.49
75901;DHT22;64577;50.594;5.570;2022-11-20T17:16:07;19.73;47.19
75901;DHT22;64577;50.594;5.570;2022-11-20T17:18:33;19.76;47.01
75901;DHT22;64577;50.594;5.570;2022-11-20T17:20:59;19.81;46.86
75901;DHT22;64577;50.594;5.570;2022-11-20T17:23:30;19.83;46.69
75901;DHT22;64577;50.594;5.570;2022-11-20T17:26:06;19.83;46.69
75901;DHT22;64577;50.594;5.570;2022-11-20T17:28:32;19.86;46.76
75901;DHT22;64577;50.594;5.570;2022-11-20T17:31:02;19.91;46.70
75901;DHT22;64577;50.594;5.570;2022-11-20T17:33:28;19.93;46.62
75901;DHT22;64577;50.594;5.570;2022-11-20T17:35:54;19.97;46.43
75901;DHT22;64577;50.594;5.570;2022-11-20T17:38:20;19.97;46.38
75901;DHT22;64577;50.594;5.570;2022-11-20T17:40:45;20.00;46.31
75901;DHT22;64577;50.594;5.570;2022-11-20T17:43:10;20.04;46.18
75901;DHT22;64577;50.594;5.570;2022-11-20T17:45:36;20.04;46.19
75901;DHT22;64577;50.594;5.570;2022-11-20T17:48:01;20.04;45.98
75901;DHT22;64577;50.594;5.570;2022-11-20T17:50:26;20.05;46.09
75901;DHT22;64577;50.594;5.570;2022-11-20T17:52:52;20.07;45.84
75901;DHT22;64577;50.594;5.570;2022-11-20T17:55:17;20.05;46.08
75901;DHT22;64577;50.594;5.570;2022-11-20T17:57:42;20.05;46.08
75901;DHT22;64577;50.594;5.570;2022-11-20T18:00:17;20.03;45.97
75901;DHT22;64577;50.594;5.570;2022-11-20T18:02:43;20.00;46.60
75901;DHT22;64577;50.594;5.570;2022-11-20T18:05:08;20.00;46.40
75901;DHT22;64577;50.594;5.570;2022-11-20T18:07:34;20.00;46.41
75901;DHT22;64577;50.594;5.570;2022-11-20T18:09:59;19.97;46.43
75901;DHT22;64577;50.594;5.570;2022-11-20T18:12:25;19.98;46.37
75901;DHT22;64577;50.594;5.570;2022-11-20T18:14:50;19.97;46.36
75901;DHT22;64577;50.594;5.570;2022-11-20T18:17:15;19.94;46.40
75901;DHT22;64577;50.594;5.570;2022-11-20T18:19:43;19.91;46.36
75901;DHT22;64577;50.594;5.570;2022-11-20T18:22:09;19.88;46.35
75901;DHT22;64577;50.594;5.570;2022-11-20T18:24:36;19.86;46.53
75901;DHT22;64577;50.594;5.570;2022-11-20T18:27:04;19.81;46.65
75901;DHT22;64577;50.594;5.570;2022-11-20T18:29:30;19.79;46.64
75901;DHT22;64577;50.594;5.570;2022-11-20T18:31:56;19.74;47.06
75901;DHT22;64577;50.594;5.570;2022-11-20T18:34:22;19.71;47.25
75901;DHT22;64577;50.594;5.570;2022-11-20T18:36:47;19.70;47.53
75901;DHT22;64577;50.594;5.570;2022-11-20T18:39:13;19.65;47.53
75901;DHT22;64577;50.594;5.570;2022-11-20T18:41:39;19.65;47.66
75901;DHT22;64577;50.594;5.570;2022-11-20T18:44:26;19.62;47.74
75901;DHT22;64577;50.594;5.570;2022-11-20T18:47:13;19.59;48.26
75901;DHT22;64577;50.594;5.570;2022-11-20T18:49:38;19.55;48.04
75901;DHT22;64577;50.594;5.570;2022-11-20T18:52:04;19.51;47.84
75901;DHT22;64577;50.594;5.570;2022-11-20T18:54:29;19.49;48.24
75901;DHT22;64577;50.594;5.570;2022-11-20T18:56:55;19.45;48.29
75901;DHT22;64577;50.594;5.570;2022-11-20T18:59:20;19.42;47.77
75901;DHT22;64577;50.594;5.570;2022-11-20T19:01:47;19.38;47.78
75901;DHT22;64577;50.594;5.570;2022-11-20T19:04:14;19.34;47.63
75901;DHT22;64577;50.594;5.570;2022-11-20T19:06:40;19.29;47.58
75901;DHT22;64577;50.594;5.570;2022-11-20T19:09:08;19.27;47.61
75901;DHT22;64577;50.594;5.570;2022-11-20T19:11:35;19.21;47.77
75901;DHT22;64577;50.594;5.570;2022-11-20T19:14:01;19.17;47.62
75901;DHT22;64577;50.594;5.570;2022-11-20T19:16:27;19.15;47.75
75901;DHT22;64577;50.594;5.570;2022-11-20T19:18:52;19.19;47.83
75901;DHT22;64577;50.594;5.570;2022-11-20T19:21:22;19.27;48.02
75901;DHT22;64577;50.594;5.570;2022-11-20T19:23:50;19.34;47.79
75901;DHT22;64577;50.594;5.570;2022-11-20T19:26:16;19.44;47.65
75901;DHT22;64577;50.594;5.570;2022-11-20T19:28:42;19.56;47.69
75901;DHT22;64577;50.594;5.570;2022-11-20T19:31:10;19.67;47.32
75901;DHT22;64577;50.594;5.570;2022-11-20T19:33:36;19.79;47.32
75901;DHT22;64577;50.594;5.570;2022-11-20T19:38:37;20.01;47.23
75901;DHT22;64577;50.594;5.570;2022-11-20T19:41:04;20.07;47.04
75901;DHT22;64577;50.594;5.570;2022-11-20T19:43:29;20.14;46.88
75901;DHT22;64577;50.594;5.570;2022-11-20T19:45:55;20.15;46.85
75901;DHT22;64577;50.594;5.570;2022-11-20T19:48:20;20.14;46.69
75901;DHT22;64577;50.594;5.570;2022-11-20T19:50:46;20.18;46.68
75901;DHT22;64577;50.594;5.570;2022-11-20T19:53:11;20.17;46.69
75901;DHT22;64577;50.594;5.570;2022-11-20T19:55:37;20.13;46.20
75901;DHT22;64577;50.594;5.570;2022-11-20T19:58:03;20.10;45.75
75901;DHT22;64577;50.594;5.570;2022-11-20T20:00:29;20.07;45.88
75901;DHT22;64577;50.594;5.570;2022-11-20T20:02:55;20.03;45.78
75901;DHT22;64577;50.594;5.570;2022-11-20T20:05:20;20.00;46.05
75901;DHT22;64577;50.594;5.570;2022-11-20T20:07:46;19.94;46.06
75901;DHT22;64577;50.594;5.570;2022-11-20T20:10:12;19.87;45.86
75901;DHT22;64577;50.594;5.570;2022-11-20T20:12:37;19.83;45.86
75901;DHT22;64577;50.594;5.570;2022-11-20T20:15:03;19.77;45.71
75901;DHT22;64577;50.594;5.570;2022-11-20T20:17:29;19.74;45.97
75901;DHT22;64577;50.594;5.570;2022-11-20T20:19:54;19.69;45.96
75901;DHT22;64577;50.594;5.570;2022-11-20T20:22:20;19.65;45.90
75901;DHT22;64577;50.594;5.570;2022-11-20T20:24:45;19.58;45.86
75901;DHT22;64577;50.594;5.570;2022-11-20T20:27:10;19.53;45.62
75901;DHT22;64577;50.594;5.570;2022-11-20T20:29:36;19.48;45.75
75901;DHT22;64577;50.594;5.570;2022-11-20T20:32:01;19.44;46.03
75901;DHT22;64577;50.594;5.570;2022-11-20T20:34:26;19.41;45.80
75901;DHT22;64577;50.594;5.570;2022-11-20T20:36:54;19.34;45.61
75901;DHT22;64577;50.594;5.570;2022-11-20T20:39:19;19.32;45.74
75901;DHT22;64577;50.594;5.570;2022-11-20T20:41:45;19.28;45.71
75901;DHT22;64577;50.594;5.570;2022-11-20T20:44:10;19.24;45.80
75901;DHT22;64577;50.594;5.570;2022-11-20T20:46:54;19.21;45.87
75901;DHT22;64577;50.594;5.570;2022-11-20T20:49:20;19.25;46.04
75901;DHT22;64577;50.594;5.570;2022-11-20T20:51:45;19.29;45.85
75901;DHT22;64577;50.594;5.570;2022-11-20T20:54:10;19.31;46.02
75901;DHT22;64577;50.594;5.570;2022-11-20T20:56:36;19.39;45.85
75901;DHT22;64577;50.594;5.570;2022-11-20T20:59:02;19.45;45.70
75901;DHT22;64577;50.594;5.570;2022-11-20T21:01:27;19.53;45.64
75901;DHT22;64577;50.594;5.570;2022-11-20T21:03:53;19.60;45.40
75901;DHT22;64577;50.594;5.570;2022-11-20T21:06:19;19.70;45.33
75901;DHT22;64577;50.594;5.570;2022-11-20T21:08:45;19.79;45.12
75901;DHT22;64577;50.594;5.570;2022-11-20T21:11:12;19.83;45.04
75901;DHT22;64577;50.594;5.570;2022-11-20T21:13:39;19.93;44.91
75901;DHT22;64577;50.594;5.570;2022-11-20T21:16:05;19.96;44.77
75901;DHT22;64577;50.594;5.570;2022-11-20T21:18:31;20.03;44.61
75901;DHT22;64577;50.594;5.570;2022-11-20T21:20:57;20.05;44.59
75901;DHT22;64577;50.594;5.570;2022-11-20T21:23:44;20.10;44.36
75901;DHT22;64577;50.594;5.570;2022-11-20T21:26:10;20.07;44.33
75901;DHT22;64577;50.594;5.570;2022-11-20T21:28:36;20.07;44.36
75901;DHT22;64577;50.594;5.570;2022-11-20T21:31:21;20.05;44.40
75901;DHT22;64577;50.594;5.570;2022-11-20T21:33:50;20.05;44.43
75901;DHT22;64577;50.594;5.570;2022-11-20T21:36:17;20.03;44.40
75901;DHT22;64577;50.594;5.570;2022-11-20T21:38:44;20.01;44.35
75901;DHT22;64577;50.594;5.570;2022-11-20T21:41:11;19.98;44.49
75901;DHT22;64577;50.594;5.570;2022-11-20T21:43:37;19.97;44.49
75901;DHT22;64577;50.594;5.570;2022-11-20T21:46:13;19.93;44.35
75901;DHT22;64577;50.594;5.570;2022-11-20T21:48:40;19.84;44.56
75901;DHT22;64577;50.594;5.570;2022-11-20T21:51:08;19.86;44.62
75901;DHT22;64577;50.594;5.570;2022-11-20T21:53:34;19.80;44.47
75901;DHT22;64577;50.594;5.570;2022-11-20T21:56:00;19.76;44.59
75901;DHT22;64577;50.594;5.570;2022-11-20T21:58:26;19.71;44.76
75901;DHT22;64577;50.594;5.570;2022-11-20T22:00:52;19.67;44.81
75901;DHT22;64577;50.594;5.570;2022-11-20T22:03:17;19.63;44.79
75901;DHT22;64577;50.594;5.570;2022-11-20T22:05:43;19.60;44.82
75901;DHT22;64577;50.594;5.570;2022-11-20T22:08:16;19.53;44.66
75901;DHT22;64577;50.594;5.570;2022-11-20T22:10:42;19.49;44.57
75901;DHT22;64577;50.594;5.570;2022-11-20T22:13:07;19.46;44.63
75901;DHT22;64577;50.594;5.570;2022-11-20T22:15:50;19.39;44.65
75901;DHT22;64577;50.594;5.570;2022-11-20T22:18:16;19.36;44.83
75901;DHT22;64577;50.594;5.570;2022-11-20T22:20:42;19.31;44.87
75901;DHT22;64577;50.594;5.570;2022-11-20T22:23:07;19.27;44.92
75901;DHT22;64577;50.594;5.570;2022-11-20T22:25:33;19.21;44.95